Euskara    
Meteorología y climatología de Navarra
Datos de la estación - Meteo Navarra

Estación de Carcastillo (La Oliva) GN

Altitud 343 m.


Datos desde el 23/02/2021 hasta el 24/02/2021 en horario solar
Los datos son PROVISIONALES

Anterior Página 1 de 1 Siguiente Descargar: Formato para Excel 2000 o superior   Formato csv   Formato para OpenOffice Calc
Fecha Temperatura Humedad relativa Radiación global Insolación Precipitación Vel. viento 10 m Vel. viento 10 m Dir. viento 10 m
°C % W/m² s l/m² m/s km/h °
23/02/2021 0:00 5.2 100 0.0 0 0.0 1.5 5.3 105
23/02/2021 0:10 4.8 100 0.0 0 0.0 2.3 8.4 114
23/02/2021 0:20 4.8 100 0.0 0 0.0 2.4 8.6 134
23/02/2021 0:30 5.7 100 0.0 0 0.0 1.5 5.2 191
23/02/2021 0:40 5.9 100 0.0 0 0.0 0.1 0.5 189
23/02/2021 0:50 6.2 100 0.0 0 0.0 1.8 6.3 117
23/02/2021 1:00 6.2 100 0.0 0 0.0 1.2 4.4 111
23/02/2021 1:10 6.2 100 0.0 0 0.0 1.2 4.4 95
23/02/2021 1:20 6.3 100 0.0 0 0.0 1.7 6.1 58
23/02/2021 1:30 6.3 100 0.0 0 0.0 1.9 6.9 91
23/02/2021 1:40 6.4 100 0.0 0 0.0 1.6 5.8 81
23/02/2021 1:50 6.4 100 0.0 0 0.0 1.6 5.8 53
23/02/2021 2:00 6.4 100 0.0 0 0.0 1.4 4.9 46
23/02/2021 2:10 6.5 100 0.0 0 0.0 1.5 5.5 35
23/02/2021 2:20 6.6 100 0.0 0 0.0 2.0 7.3 59
23/02/2021 2:30 6.6 100 0.0 0 0.0 2.4 8.5 73
23/02/2021 2:40 6.7 100 0.0 0 0.0 2.8 10.2 79
23/02/2021 2:50 6.6 100 0.0 0 0.0 3.1 11.0 73
23/02/2021 3:00 6.6 100 0.0 0 0.0 2.9 10.4 67
23/02/2021 3:10 6.6 100 0.0 0 0.0 2.5 9.1 68
23/02/2021 3:20 6.5 100 0.0 0 0.0 2.5 9.1 67
23/02/2021 3:30 6.6 100 0.0 0 0.0 2.7 9.6 64
23/02/2021 3:40 6.5 100 0.0 0 0.0 2.2 7.9 62
23/02/2021 3:50 6.5 100 0.0 0 0.0 2.6 9.4 71
23/02/2021 4:00 6.5 100 0.0 0 0.0 3.1 11.1 81
23/02/2021 4:10 6.6 100 0.0 0 0.0 2.7 9.6 78
23/02/2021 4:20 6.7 100 0.0 0 0.0 2.1 7.4 69
23/02/2021 4:30 6.6 100 0.0 0 0.0 2.1 7.4 74
23/02/2021 4:40 6.7 100 0.0 0 0.0 2.2 7.9 69
23/02/2021 4:50 6.6 100 0.0 0 0.0 1.9 6.7 66
23/02/2021 5:00 6.8 100 0.0 0 0.0 2.1 7.5 84
23/02/2021 5:10 6.8 100 0.0 0 0.0 2.7 9.7 65
23/02/2021 5:20 6.9 100 0.0 0 0.0 2.3 8.1 71
23/02/2021 5:30 6.9 100 0.0 0 0.0 2.3 8.1 93
23/02/2021 5:40 7.0 100 0.0 0 0.0 2.0 7.1 96
23/02/2021 5:50 7.0 100 0.0 0 0.0 1.8 6.5 119
23/02/2021 6:00 7.2 100 0.0 0 0.0 2.1 7.6 116
23/02/2021 6:10 7.2 100 0.0 0 0.0 2.3 8.2 117
23/02/2021 6:20 6.9 100 0.0 0 0.0 2.3 8.1 104
23/02/2021 6:30 6.7 100 0.0 0 0.0 2.1 7.5 116
23/02/2021 6:40 6.3 100 0.0 0 0.0 2.6 9.2 110
23/02/2021 6:50 6.3 100 0.0 0 0.0 2.9 10.3 116
23/02/2021 7:00 6.3 100 0.0 0 0.0 2.3 8.3 118
23/02/2021 7:10 5.9 100 0.0 0 0.0 1.7 6.2 115
23/02/2021 7:20 5.5 100 0.0 0 0.0 2.3 8.4 111
23/02/2021 7:30 5.7 100 19.6 0 0.0 2.5 8.9 126
23/02/2021 7:40 5.7 100 28.0 0 0.0 2.5 9.1 121
23/02/2021 7:50 5.7 100 37.4 0 0.0 2.4 8.5 124
23/02/2021 8:00 5.9 100 50.5 0 0.0 2.0 7.1 122
23/02/2021 8:10 6.1 100 75.0 92 0.0 2.0 7.3 120
23/02/2021 8:20 6.2 100 60.2 0 0.0 2.1 7.5 111
23/02/2021 8:30 6.4 100 70.4 0 0.0 2.4 8.6 114
23/02/2021 8:40 7.1 100 93.0 0 0.0 2.8 9.9 127
23/02/2021 8:50 7.9 100 112.5 0 0.0 3.1 11.3 131
23/02/2021 9:00 8.2 99 130.6 0 0.0 3.3 11.8 130
23/02/2021 9:10 8.5 97 163.5 8 0.0 3.2 11.7 138
23/02/2021 9:20 8.7 95 212.3 164 0.0 2.7 9.8 139
23/02/2021 9:30 9.3 92 356.2 526 0.0 2.6 9.3 150
23/02/2021 9:40 10.0 84 426.0 564 0.0 3.1 11.1 147
23/02/2021 9:50 10.5 80 436.7 534 0.0 2.9 10.3 144
23/02/2021 10:00 11.0 77 449.5 494 0.0 3.2 11.4 155
23/02/2021 10:10 11.1 75 519.2 590 0.0 3.2 11.5 165
23/02/2021 10:20 11.3 73 535.6 596 0.0 2.5 8.9 162
23/02/2021 10:30 11.7 72 489.2 512 0.0 2.6 9.3 163
23/02/2021 10:40 11.7 71 577.2 596 0.0 4.1 14.8 144
23/02/2021 10:50 11.7 71 590.9 586 0.0 4.6 16.4 151
23/02/2021 11:00 11.8 70 619.5 600 0.0 4.2 14.9 154
23/02/2021 11:10 12.2 71 633.9 600 0.0 3.5 12.4 159
23/02/2021 11:20 12.6 70 662.8 600 0.0 3.7 13.2 160
23/02/2021 11:30 12.6 69 641.3 558 0.0 3.8 13.6 154
23/02/2021 11:40 12.8 70 668.3 598 0.0 3.0 10.7 152
23/02/2021 11:50 13.1 69 681.6 600 0.0 3.9 14.1 147
23/02/2021 12:00 13.2 69 691.0 596 0.0 3.7 13.3 146
23/02/2021 12:10 13.4 69 702.5 600 0.0 4.4 16.0 140
23/02/2021 12:20 13.4 69 672.7 588 0.0 4.4 15.8 149
23/02/2021 12:30 13.6 69 682.8 600 0.0 4.3 15.4 153
23/02/2021 12:40 13.6 67 676.9 600 0.0 4.1 14.8 148
23/02/2021 12:50 13.8 67 669.8 600 0.0 4.3 15.6 145
23/02/2021 13:00 13.9 66 664.4 600 0.0 4.4 15.7 150
23/02/2021 13:10 14.1 64 656.0 600 0.0 4.9 17.5 149
23/02/2021 13:20 14.1 63 642.4 598 0.0 5.1 18.5 150
23/02/2021 13:30 14.2 62 635.8 600 0.0 5.2 18.5 153
23/02/2021 13:40 14.4 61 624.6 600 0.0 4.7 17.1 145
23/02/2021 13:50 14.6 62 609.0 600 0.0 4.7 16.9 147
23/02/2021 14:00 14.6 63 543.7 534 0.0 6.0 21.5 136
23/02/2021 14:10 14.2 64 486.8 472 0.0 4.9 17.7 148
23/02/2021 14:20 14.4 64 453.8 452 0.0 5.1 18.4 152
23/02/2021 14:30 14.1 64 196.3 88 0.0 4.6 16.5 151
23/02/2021 14:40 13.8 65 188.9 90 0.0 4.3 15.4 142
23/02/2021 14:50 13.9 65 339.9 382 0.0 5.1 18.3 151
23/02/2021 15:00 14.3 65 452.5 590 0.0 6.2 22.4 136
23/02/2021 15:10 14.6 63 415.3 560 0.0 5.3 18.9 151
23/02/2021 15:20 14.8 63 405.6 600 0.0 6.2 22.2 141
23/02/2021 15:30 14.7 62 376.4 600 0.0 6.9 24.8 143
23/02/2021 15:40 14.7 62 347.9 600 0.0 6.3 22.6 145
23/02/2021 15:50 14.7 62 323.4 600 0.0 5.5 19.8 144
23/02/2021 16:00 14.7 65 299.6 600 0.0 5.1 18.5 136
23/02/2021 16:10 14.5 66 258.7 582 0.0 5.6 20.2 139
23/02/2021 16:20 14.4 66 215.5 554 0.0 5.6 20.2 143
23/02/2021 16:30 14.3 66 195.6 600 0.0 4.4 16.0 146
23/02/2021 16:40 14.3 66 166.2 600 0.0 3.7 13.4 148
23/02/2021 16:50 14.1 67 141.3 600 0.0 4.2 15.1 144
23/02/2021 17:00 14.0 68 111.9 600 0.0 3.7 13.5 141
23/02/2021 17:10 13.8 68 85.3 600 0.0 3.7 13.4 141
23/02/2021 17:20 13.5 68 55.1 600 0.0 3.8 13.7 143
23/02/2021 17:30 13.2 70 33.9 438 0.0 3.3 12.0 140
23/02/2021 17:40 12.9 71 14.6 0 0.0 2.6 9.2 145
23/02/2021 17:50 12.6 72 0.0 0 0.0 2.5 8.9 147
23/02/2021 18:00 12.5 72 0.0 0 0.0 2.7 9.7 152
23/02/2021 18:10 12.3 73 0.0 0 0.0 1.9 6.9 164
23/02/2021 18:20 12.2 74 0.0 0 0.0 1.9 6.8 157
23/02/2021 18:30 11.8 75 0.0 0 0.0 1.1 4.1 148
23/02/2021 18:40 11.6 77 0.0 0 0.0 1.8 6.3 139
23/02/2021 18:50 11.4 77 0.0 0 0.0 1.7 6.1 140
23/02/2021 19:00 11.3 77 0.0 0 0.0 1.5 5.4 129
23/02/2021 19:10 10.7 78 0.0 0 0.0 2.0 7.1 85
23/02/2021 19:20 10.1 81 0.0 0 0.0 2.1 7.5 99
23/02/2021 19:30 9.6 83 0.0 0 0.0 3.0 10.9 97
23/02/2021 19:40 9.3 85 0.0 0 0.0 3.4 12.1 89
23/02/2021 19:50 9.2 86 0.0 0 0.0 3.4 12.1 96
23/02/2021 20:00 9.0 87 0.0 0 0.0 2.5 9.1 102
23/02/2021 20:10 8.5 88 0.0 0 0.0 2.1 7.6 108
23/02/2021 20:20 8.3 89 0.0 0 0.0 2.7 9.6 118
23/02/2021 20:30 8.1 90 0.0 0 0.0 3.6 12.9 124
23/02/2021 20:40 8.5 90 0.0 0 0.0 4.1 14.9 128
23/02/2021 20:50 8.6 89 0.0 0 0.0 4.3 15.5 128
23/02/2021 21:00 8.5 89 0.0 0 0.0 3.9 13.9 129
23/02/2021 21:10 8.4 89 0.0 0 0.0 3.5 12.6 127
23/02/2021 21:20 7.9 91 0.0 0 0.0 3.8 13.8 122
23/02/2021 21:30 7.6 92 0.0 0 0.0 3.6 13.0 124
23/02/2021 21:40 7.7 93 0.0 0 0.0 3.3 12.0 124
23/02/2021 21:50 7.5 93 0.0 0 0.0 3.5 12.7 124
23/02/2021 22:00 7.5 93 0.0 0 0.0 3.5 12.7 122
23/02/2021 22:10 7.6 93 0.0 0 0.0 3.8 13.6 127
23/02/2021 22:20 7.7 93 0.0 0 0.0 3.8 13.5 126
23/02/2021 22:30 7.8 93 0.0 0 0.0 3.6 13.0 125
23/02/2021 22:40 7.6 92 0.0 0 0.0 3.0 10.9 127
23/02/2021 22:50 7.1 93 0.0 0 0.0 2.6 9.4 123
23/02/2021 23:00 6.7 93 0.0 0 0.0 2.3 8.2 110
23/02/2021 23:10 6.4 96 0.0 0 0.0 2.9 10.4 102
23/02/2021 23:20 6.3 96 0.0 0 0.0 2.6 9.5 103
23/02/2021 23:30 6.1 97 0.0 0 0.0 2.0 7.3 109
23/02/2021 23:40 5.9 98 0.0 0 0.0 2.6 9.3 130
23/02/2021 23:50 6.8 99 0.0 0 0.0 2.7 9.6 134
Anterior Página 1 de 1 Siguiente

NOTA: Tipo de datos según el color:
   - Valores diarios o 10 minutos correctos
   - Valores diarios calculados a partir de un número de datos 10 minutos menor que 144 y mayor que 120, o de un número de datos semihorarios menor que 48 y mayor que 40 (caso de las estaciones de INTIA Y Ministerio)
   - Valores diez minutos estimados


Contacto        Enlaces        Aviso legal